Time;durP1;ratioP1;P1;durP2;ratioP2;P2;SDS_P1;SDS_P2;PMS_P1;PMS_P2;Temp;Humidity;BMP_temperature;BMP_pressure;BME280_temperature;BME280_humidity;BME280_pressure;Samples;Min_cycle;Max_cycle;Signal;HPM_P1;HPM_P2
2021/09/13 00:01:40;;;;;;;1.42;1.33;;;19.60;70.40;;;;;;5009682;28;20025;-83
2021/09/13 00:04:06;;;;;;;2.15;2.00;;;19.60;70.10;;;;;;5009297;28;20516;-88
2021/09/13 00:06:32;;;;;;;1.40;1.30;;;19.60;69.90;;;;;;5023522;28;20055;-82
2021/09/13 00:08:59;;;;;;;1.40;1.30;;;19.50;69.50;;;;;;5030099;28;20033;-82
2021/09/13 00:11:25;;;;;;;1.40;1.30;;;19.40;70.00;;;;;;5012363;28;20032;-82
2021/09/13 00:13:51;;;;;;;1.40;1.30;;;19.50;68.50;;;;;;5012474;28;20026;-85
2021/09/13 00:16:17;;;;;;;1.90;1.63;;;19.60;67.20;;;;;;5011895;28;20025;-83
2021/09/13 00:18:43;;;;;;;2.45;2.25;;;19.50;69.50;;;;;;5029817;28;20535;-79
2021/09/13 00:21:09;;;;;;;3.03;2.58;;;19.40;69.30;;;;;;5029694;28;20025;-81
2021/09/13 00:23:34;;;;;;;1.50;1.40;;;19.30;69.10;;;;;;5011595;28;20025;-80
2021/09/13 00:26:00;;;;;;;1.50;1.40;;;19.30;68.10;;;;;;5029626;28;20034;-80
2021/09/13 00:28:26;;;;;;;2.25;2.08;;;19.30;69.40;;;;;;5018405;28;20096;-81
2021/09/13 00:30:52;;;;;;;1.58;1.48;;;19.30;68.20;;;;;;4992428;28;20030;-82
2021/09/13 00:33:18;;;;;;;1.50;1.40;;;19.10;69.80;;;;;;5013691;28;20030;-80
2021/09/13 00:35:43;;;;;;;2.75;2.50;;;19.00;70.60;;;;;;4995854;28;20053;-84
2021/09/13 00:38:09;;;;;;;1.42;1.33;;;19.10;71.00;;;;;;5013397;28;20069;-80
2021/09/13 00:40:35;;;;;;;1.60;1.50;;;19.20;71.20;;;;;;4995870;28;20030;-81
2021/09/13 00:43:03;;;;;;;2.03;1.83;;;19.30;70.60;;;;;;5013595;28;20080;-80
2021/09/13 00:45:29;;;;;;;1.60;1.50;;;19.20;70.40;;;;;;5013414;28;20014;-82
2021/09/13 00:47:55;;;;;;;2.50;2.30;;;19.20;70.50;;;;;;5012779;28;20022;-82
2021/09/13 00:50:21;;;;;;;1.77;1.67;;;19.30;70.70;;;;;;5013523;28;20076;-83
2021/09/13 00:52:51;;;;;;;2.15;2.05;;;19.20;70.20;;;;;;5013152;28;20097;-79
2021/09/13 00:55:18;;;;;;;2.15;2.03;;;19.20;70.20;;;;;;5013015;28;20030;-80
2021/09/13 00:57:44;;;;;;;3.05;1.77;;;19.30;70.30;;;;;;5012844;28;20037;-79
2021/09/13 01:00:11;;;;;;;2.38;2.17;;;19.20;71.00;;;;;;5013404;28;20080;-82
2021/09/13 01:02:36;;;;;;;1.85;1.75;;;19.20;71.30;;;;;;5012953;28;20025;-84
2021/09/13 01:05:03;;;;;;;1.60;1.50;;;19.00;71.40;;;;;;5013546;28;20096;-81
2021/09/13 01:07:30;;;;;;;1.50;1.40;;;19.10;71.00;;;;;;5012682;28;20104;-81
2021/09/13 01:09:58;;;;;;;4.97;3.05;;;18.70;71.20;;;;;;5013872;28;20033;-87
2021/09/13 01:12:24;;;;;;;2.30;2.10;;;18.80;72.20;;;;;;4996266;28;20022;-85
2021/09/13 01:14:49;;;;;;;1.55;1.45;;;18.90;72.20;;;;;;4995702;28;20415;-80
2021/09/13 01:17:15;;;;;;;2.05;1.92;;;18.90;72.90;;;;;;4994895;28;20040;-82
2021/09/13 01:19:41;;;;;;;1.50;1.40;;;19.00;71.40;;;;;;5012845;28;20486;-81
2021/09/13 01:22:10;;;;;;;1.63;1.52;;;18.80;70.40;;;;;;5012514;28;20039;-83
2021/09/13 01:24:35;;;;;;;1.88;1.77;;;18.20;72.50;;;;;;4995389;28;20033;-81
2021/09/13 01:27:08;;;;;;;2.58;2.38;;;18.40;72.90;;;;;;4994484;28;20029;-82
2021/09/13 01:29:35;;;;;;;1.92;1.83;;;18.60;72.20;;;;;;5012732;28;20359;-82
2021/09/13 01:32:02;;;;;;;2.33;2.20;;;18.80;71.90;;;;;;5012459;28;20026;-81
2021/09/13 01:34:28;;;;;;;1.50;1.40;;;18.90;72.00;;;;;;5012605;28;20042;-82
2021/09/13 01:36:54;;;;;;;1.90;1.80;;;18.80;72.30;;;;;;5010825;28;20363;-82
2021/09/13 01:39:20;;;;;;;2.03;1.92;;;18.90;73.10;;;;;;5012422;28;20555;-80
2021/09/13 01:41:47;;;;;;;1.55;1.45;;;18.90;73.30;;;;;;5012439;28;20025;-79
2021/09/13 01:44:16;;;;;;;2.35;2.15;;;18.90;73.30;;;;;;5010419;28;20030;-82
2021/09/13 01:46:43;;;;;;;1.67;1.58;;;18.80;73.60;;;;;;5012365;28;20025;-81
2021/09/13 01:49:13;;;;;;;2.78;2.58;;;18.80;74.20;;;;;;5011842;28;20088;-81
2021/09/13 01:51:39;;;;;;;1.80;1.70;;;18.70;73.10;;;;;;5010860;28;20033;-82
2021/09/13 01:54:06;;;;;;;1.75;1.65;;;18.80;73.50;;;;;;5012070;28;20041;-81
2021/09/13 01:56:32;;;;;;;2.50;2.30;;;18.70;74.30;;;;;;5010718;28;20026;-81
2021/09/13 01:58:59;;;;;;;1.80;1.70;;;18.80;73.50;;;;;;5010579;28;20049;-82
2021/09/13 02:01:25;;;;;;;1.88;1.77;;;18.90;72.70;;;;;;5011089;28;20084;-85
2021/09/13 02:03:51;;;;;;;1.60;1.50;;;18.80;73.50;;;;;;5012664;28;20038;-85
2021/09/13 02:06:20;;;;;;;2.72;2.53;;;18.70;73.50;;;;;;5011430;28;20057;-81
2021/09/13 02:08:46;;;;;;;2.70;2.50;;;18.50;71.30;;;;;;5010847;28;20036;-82
2021/09/13 02:11:12;;;;;;;1.48;1.38;;;18.60;72.70;;;;;;5011585;28;20097;-80
2021/09/13 02:13:38;;;;;;;1.85;1.75;;;18.70;72.40;;;;;;5010229;28;20112;-81
2021/09/13 02:16:06;;;;;;;2.05;1.90;;;18.80;72.70;;;;;;5010450;28;20022;-82
2021/09/13 02:18:32;;;;;;;2.00;1.90;;;18.70;73.50;;;;;;5011446;28;20041;-81
2021/09/13 02:20:58;;;;;;;7.22;2.63;;;18.80;73.20;;;;;;5011351;28;20805;-79
2021/09/13 02:23:24;;;;;;;5.47;3.15;;;18.70;72.90;;;;;;5010567;28;20037;-81
2021/09/13 02:25:50;;;;;;;1.80;1.70;;;18.70;72.80;;;;;;5010097;28;20038;-83
2021/09/13 02:28:15;;;;;;;3.47;2.70;;;18.70;72.20;;;;;;5006625;28;20022;-84
2021/09/13 02:30:42;;;;;;;1.70;1.60;;;18.70;73.00;;;;;;5011045;28;20034;-83
2021/09/13 02:33:08;;;;;;;1.50;1.40;;;18.70;73.10;;;;;;5011610;28;20017;-82
2021/09/13 02:35:34;;;;;;;9.05;3.67;;;18.50;74.10;;;;;;5011415;28;20084;-80
2021/09/13 02:38:00;;;;;;;1.80;1.70;;;18.50;74.10;;;;;;5011279;28;20030;-82
2021/09/13 02:40:26;;;;;;;2.90;2.70;;;18.60;74.00;;;;;;5010845;28;20026;-80
2021/09/13 02:42:52;;;;;;;2.53;2.33;;;18.60;73.50;;;;;;5011196;28;20033;-83
2021/09/13 02:45:18;;;;;;;1.50;1.40;;;18.60;73.80;;;;;;5011065;28;20022;-82
2021/09/13 02:47:44;;;;;;;1.80;1.70;;;18.60;73.50;;;;;;4993575;28;20034;-80
2021/09/13 02:50:10;;;;;;;2.90;1.90;;;18.40;75.20;;;;;;5011300;28;20118;-79
2021/09/13 02:52:36;;;;;;;2.72;2.53;;;18.40;74.60;;;;;;4993317;28;20064;-80
2021/09/13 02:55:04;;;;;;;2.50;2.30;;;18.40;74.20;;;;;;5010100;28;20141;-79
2021/09/13 02:57:30;;;;;;;1.90;1.80;;;18.40;74.50;;;;;;5010529;28;20041;-80
2021/09/13 02:59:55;;;;;;;3.00;2.60;;;18.30;76.90;;;;;;4993083;28;20034;-79
2021/09/13 03:02:21;;;;;;;1.50;1.40;;;18.20;77.60;;;;;;4993120;28;20026;-81
2021/09/13 03:04:47;;;;;;;2.30;2.10;;;18.10;78.00;;;;;;4993191;28;20044;-81
2021/09/13 03:07:13;;;;;;;1.50;1.40;;;18.10;78.80;;;;;;4992613;28;20045;-81
2021/09/13 03:09:39;;;;;;;2.25;2.05;;;17.90;79.20;;;;;;5010886;28;20084;-81
2021/09/13 03:12:06;;;;;;;2.00;1.88;;;17.90;78.70;;;;;;4992981;28;20187;-80
2021/09/13 03:14:32;;;;;;;1.92;1.83;;;17.80;79.10;;;;;;5010511;28;20435;-80
2021/09/13 03:16:59;;;;;;;2.63;2.42;;;17.80;79.90;;;;;;5010279;28;20030;-81
2021/09/13 03:19:25;;;;;;;2.65;2.45;;;17.60;80.50;;;;;;4992761;28;20465;-82
2021/09/13 03:21:51;;;;;;;1.65;1.55;;;17.60;79.90;;;;;;5009916;28;20092;-83
2021/09/13 03:24:17;;;;;;;2.28;2.08;;;17.60;79.40;;;;;;5010638;28;20034;-82
2021/09/13 03:26:44;;;;;;;2.45;2.25;;;17.70;79.30;;;;;;4992525;28;20022;-81
2021/09/13 03:29:10;;;;;;;1.67;1.58;;;17.70;78.20;;;;;;5001165;28;20117;-80
2021/09/13 03:31:36;;;;;;;1.90;1.80;;;17.70;78.00;;;;;;5008751;28;20148;-82
2021/09/13 03:34:02;;;;;;;2.17;2.08;;;17.60;79.60;;;;;;5009090;28;20041;-81
2021/09/13 03:36:28;;;;;;;1.90;1.80;;;17.60;78.40;;;;;;5008889;28;20054;-82
2021/09/13 03:38:53;;;;;;;1.70;1.60;;;17.50;78.20;;;;;;5010660;28;20120;-82
2021/09/13 03:41:19;;;;;;;1.77;1.67;;;17.30;79.50;;;;;;5010231;28;20478;-81
2021/09/13 03:43:45;;;;;;;2.30;2.10;;;17.30;80.20;;;;;;5009814;28;20037;-81
2021/09/13 03:46:11;;;;;;;1.67;1.58;;;16.90;81.30;;;;;;5008681;28;20071;-81
2021/09/13 03:48:37;;;;;;;2.45;2.25;;;17.20;81.20;;;;;;5010365;28;20029;-80
2021/09/13 03:51:03;;;;;;;1.80;1.70;;;17.40;80.80;;;;;;5008785;28;20026;-80
2021/09/13 03:53:29;;;;;;;1.85;1.75;;;17.30;80.90;;;;;;5010048;28;20096;-82
2021/09/13 03:55:54;;;;;;;2.95;2.42;;;17.30;81.20;;;;;;5011050;28;20129;-84
2021/09/13 03:58:20;;;;;;;1.60;1.50;;;17.30;81.30;;;;;;5008768;28;20448;-84
2021/09/13 04:00:46;;;;;;;1.50;1.40;;;17.30;80.90;;;;;;5009973;28;20026;-84
2021/09/13 04:03:19;;;;;;;2.10;1.92;;;17.10;80.20;;;;;;5009146;28;20030;-83
2021/09/13 04:05:48;;;;;;;1.73;1.63;;;17.00;81.70;;;;;;5008519;28;20108;-85
2021/09/13 04:11:17;;;;;;;;;;;17.20;81.90;;;;;;5014471;28;20080;-84
2021/09/13 04:13:44;;;;;;;2.05;1.95;;;17.20;80.90;;;;;;5014099;28;19993;-84
2021/09/13 04:16:10;;;;;;;1.75;1.65;;;17.30;81.40;;;;;;5012570;28;20030;-85
2021/09/13 04:18:35;;;;;;;3.88;3.45;;;17.10;81.30;;;;;;5013728;28;20096;-85
2021/09/13 04:21:01;;;;;;;2.15;2.05;;;16.70;81.60;;;;;;5013143;28;20116;-83
2021/09/13 04:23:27;;;;;;;1.90;1.80;;;17.00;81.90;;;;;;5014059;28;20045;-85
2021/09/13 04:25:52;;;;;;;2.13;2.03;;;17.10;81.50;;;;;;5014095;28;20022;-84
2021/09/13 04:28:18;;;;;;;1.70;1.60;;;17.30;81.30;;;;;;5013994;28;20029;-85
2021/09/13 04:30:44;;;;;;;4.53;2.53;;;17.30;81.70;;;;;;5014611;28;20030;-84
2021/09/13 04:33:09;;;;;;;1.60;1.50;;;17.30;83.00;;;;;;5013993;28;20049;-87
2021/09/13 04:35:35;;;;;;;1.83;1.73;;;17.20;83.60;;;;;;5014116;28;20084;-84
2021/09/13 04:38:01;;;;;;;2.13;2.00;;;17.30;83.00;;;;;;4996384;28;20077;-82
2021/09/13 04:40:27;;;;;;;2.40;2.20;;;17.40;83.10;;;;;;5014832;28;20088;-83
2021/09/13 04:42:52;;;;;;;3.92;2.58;;;17.40;83.00;;;;;;5013700;28;20058;-82
2021/09/13 04:45:18;;;;;;;1.83;1.73;;;17.30;84.00;;;;;;4995901;28;20046;-84
2021/09/13 04:47:44;;;;;;;1.70;1.60;;;17.40;83.70;;;;;;5013235;28;20489;-79
2021/09/13 04:50:10;;;;;;;1.70;1.60;;;17.40;83.90;;;;;;4995415;28;20034;-81
2021/09/13 04:52:35;;;;;;;1.98;1.83;;;17.40;83.50;;;;;;5013207;28;20042;-81
2021/09/13 04:55:01;;;;;;;2.00;1.90;;;17.40;83.70;;;;;;5013183;28;20026;-83
2021/09/13 04:57:27;;;;;;;2.92;2.72;;;17.60;83.30;;;;;;4994676;28;20068;-83
2021/09/13 04:59:52;;;;;;;4.95;3.72;;;17.60;83.70;;;;;;5012900;28;20042;-82
2021/09/13 05:02:18;;;;;;;3.83;3.53;;;17.70;83.70;;;;;;5012641;28;20054;-82
2021/09/13 05:04:55;;;;;;;1.60;1.50;;;17.70;82.60;;;;;;4995049;28;20042;-81
2021/09/13 05:11:07;;;;;;;1.77;1.67;;;17.80;81.80;;;;;;4944213;29;20833;-81
2021/09/13 05:13:33;;;;;;;3.50;3.13;;;17.90;80.20;;;;;;4951391;29;20510;-81
2021/09/13 05:15:59;;;;;;;6.00;5.40;;;18.00;80.20;;;;;;4935204;29;20035;-81
2021/09/13 05:18:25;;;;;;;3.38;2.50;;;18.10;81.30;;;;;;4949515;28;20051;-82
2021/09/13 05:20:50;;;;;;;5.28;4.78;;;18.20;81.20;;;;;;4935244;29;20380;-81
2021/09/13 05:23:16;;;;;;;6.07;5.45;;;18.20;79.30;;;;;;5009215;28;20037;-81
2021/09/13 05:25:42;;;;;;;1.75;1.65;;;18.20;79.00;;;;;;5014257;28;20095;-81
2021/09/13 05:28:07;;;;;;;1.73;1.63;;;18.20;79.90;;;;;;4994361;28;20703;-80
2021/09/13 05:30:33;;;;;;;1.40;1.30;;;18.30;80.10;;;;;;5011893;28;20066;-81
2021/09/13 05:32:59;;;;;;;1.40;1.30;;;18.30;78.00;;;;;;5012084;28;20022;-81
2021/09/13 05:35:25;;;;;;;2.30;2.10;;;18.40;78.20;;;;;;5011925;28;20037;-83
2021/09/13 05:37:50;;;;;;;1.63;1.52;;;18.50;78.30;;;;;;4994499;28;20030;-84
2021/09/13 05:40:16;;;;;;;7.68;1.95;;;18.50;77.90;;;;;;4994797;28;20030;-83
2021/09/13 05:42:42;;;;;;;1.85;1.75;;;18.60;78.30;;;;;;5011894;28;20022;-83
2021/09/13 05:45:08;;;;;;;2.45;2.25;;;18.80;78.20;;;;;;5012129;28;20040;-85
2021/09/13 05:47:34;;;;;;;1.95;1.85;;;18.80;77.70;;;;;;5011151;28;20026;-85
2021/09/13 05:50:00;;;;;;;1.48;1.38;;;18.90;77.80;;;;;;4994037;28;20370;-84
2021/09/13 05:52:26;;;;;;;2.60;2.40;;;18.90;78.80;;;;;;5011215;28;20025;-84
2021/09/13 05:55:01;;;;;;;1.55;1.45;;;18.90;77.70;;;;;;4993293;28;20034;-84
2021/09/13 05:57:27;;;;;;;5.90;3.00;;;18.80;78.40;;;;;;5011192;28;20026;-82
2021/09/13 05:59:53;;;;;;;2.95;1.85;;;18.80;78.50;;;;;;5011524;28;20030;-80
2021/09/13 06:02:18;;;;;;;1.35;1.25;;;18.90;78.80;;;;;;5011549;28;20022;-83
2021/09/13 06:04:46;;;;;;;1.60;1.50;;;19.00;78.10;;;;;;5011396;28;20588;-83
2021/09/13 06:07:11;;;;;;;1.50;1.40;;;18.80;79.50;;;;;;5011017;28;20087;-83
2021/09/13 06:09:37;;;;;;;1.75;1.65;;;18.80;79.60;;;;;;5012266;28;20030;-85
2021/09/13 06:12:04;;;;;;;1.50;1.40;;;18.90;79.30;;;;;;5011344;28;20109;-84
2021/09/13 06:14:29;;;;;;;1.30;1.20;;;19.10;79.60;;;;;;4994027;28;20393;-83
2021/09/13 06:16:55;;;;;;;1.95;1.75;;;19.30;79.00;;;;;;4993513;28;20473;-83
2021/09/13 06:19:33;;;;;;;1.40;1.30;;;19.30;78.20;;;;;;4994380;28;20065;-81
2021/09/13 06:21:59;;;;;;;1.30;1.20;;;19.20;78.60;;;;;;5011153;28;20054;-85
2021/09/13 06:24:24;;;;;;;1.30;1.20;;;19.30;78.90;;;;;;5012070;28;20441;-80
2021/09/13 06:26:50;;;;;;;2.17;2.05;;;19.50;77.60;;;;;;5010706;28;20042;-82
2021/09/13 06:29:16;;;;;;;1.30;1.20;;;19.60;78.20;;;;;;4998237;28;20029;-82
2021/09/13 06:31:42;;;;;;;1.75;1.65;;;19.60;78.90;;;;;;5009717;28;20030;-83
2021/09/13 06:34:08;;;;;;;1.52;1.42;;;19.80;79.00;;;;;;5009715;28;20030;-82
2021/09/13 06:36:34;;;;;;;1.30;1.20;;;19.90;77.40;;;;;;5010975;28;20026;-80
2021/09/13 06:39:00;;;;;;;2.65;2.45;;;20.00;77.60;;;;;;5009067;28;20656;-82
2021/09/13 06:41:26;;;;;;;1.70;1.60;;;19.80;76.70;;;;;;5010993;28;20049;-83
2021/09/13 06:43:53;;;;;;;1.30;1.20;;;19.90;76.20;;;;;;5010978;28;20131;-81
2021/09/13 06:46:24;;;;;;;1.45;1.35;;;20.00;76.10;;;;;;5009859;28;20030;-84
2021/09/13 06:48:51;;;;;;;2.10;1.80;;;20.20;76.40;;;;;;5010951;28;20106;-84
2021/09/13 06:51:18;;;;;;;1.10;1.10;;;20.40;76.70;;;;;;5009672;28;20057;-83
2021/09/13 06:53:44;;;;;;;1.48;1.38;;;20.70;75.30;;;;;;5013830;28;20041;-82
2021/09/13 06:56:12;;;;;;;1.65;1.55;;;20.60;75.50;;;;;;5019665;28;20022;-82
2021/09/13 06:58:37;;;;;;;1.85;1.75;;;20.70;74.00;;;;;;5004519;28;20620;-84
2021/09/13 07:01:03;;;;;;;4.80;2.30;;;20.60;74.40;;;;;;5009615;28;20021;-83
2021/09/13 07:03:30;;;;;;;1.73;1.63;;;20.70;74.30;;;;;;5009244;28;20583;-83
2021/09/13 07:05:55;;;;;;;3.20;1.50;;;20.80;74.20;;;;;;5009086;28;20452;-84
2021/09/13 07:08:21;;;;;;;1.63;1.52;;;20.80;74.40;;;;;;5022122;28;20465;-82
2021/09/13 07:10:58;;;;;;;1.30;1.20;;;20.80;74.60;;;;;;5004834;28;20484;-82
2021/09/13 07:13:24;;;;;;;1.00;1.00;;;20.90;74.80;;;;;;5004249;28;20031;-82
2021/09/13 07:15:53;;;;;;;1.50;1.40;;;21.00;74.20;;;;;;5005730;28;20029;-83
2021/09/13 07:18:19;;;;;;;1.10;1.08;;;21.20;74.30;;;;;;4993899;28;20030;-82
2021/09/13 07:20:45;;;;;;;4.05;1.73;;;21.20;73.00;;;;;;5013300;28;20030;-84
2021/09/13 07:23:10;;;;;;;1.20;1.10;;;21.10;72.60;;;;;;4998996;28;20472;-82
2021/09/13 07:25:36;;;;;;;1.40;1.30;;;21.20;73.90;;;;;;5002647;28;20033;-82
2021/09/13 07:28:02;;;;;;;1.25;1.15;;;21.30;74.30;;;;;;5001738;28;20068;-83
2021/09/13 07:30:28;;;;;;;1.45;1.35;;;21.20;72.40;;;;;;5000394;28;20501;-81
2021/09/13 07:32:54;;;;;;;2.47;2.28;;;21.30;72.50;;;;;;5000953;28;20021;-82
2021/09/13 07:35:20;;;;;;;1.60;1.50;;;21.50;73.10;;;;;;5016651;28;20325;-82
2021/09/13 07:37:46;;;;;;;1.20;1.10;;;21.70;72.70;;;;;;5019738;28;20556;-85
2021/09/13 07:40:12;;;;;;;1.55;1.45;;;21.60;72.10;;;;;;5009806;28;20036;-82
2021/09/13 07:42:40;;;;;;;7.40;2.35;;;21.70;72.00;;;;;;5017830;28;20377;-81
2021/09/13 07:45:06;;;;;;;1.35;1.25;;;21.80;71.50;;;;;;5001945;28;20028;-82
2021/09/13 07:47:32;;;;;;;1.75;1.65;;;21.70;71.40;;;;;;5000027;28;20018;-81
2021/09/13 07:49:59;;;;;;;2.10;2.00;;;21.70;71.10;;;;;;4990275;28;20033;-80
2021/09/13 07:52:26;;;;;;;1.55;1.45;;;21.80;71.40;;;;;;4999681;28;20029;-83
2021/09/13 07:54:51;;;;;;;2.80;1.58;;;22.00;70.90;;;;;;4981228;28;20035;-80
2021/09/13 07:57:20;;;;;;;1.45;1.35;;;22.20;71.00;;;;;;4997925;28;20053;-82
2021/09/13 07:59:45;;;;;;;3.60;2.85;;;22.30;71.10;;;;;;4997918;28;20034;-83
2021/09/13 08:02:13;;;;;;;0.98;0.98;;;22.40;70.00;;;;;;4981764;28;20022;-82
2021/09/13 08:04:40;;;;;;;1.60;1.50;;;22.50;70.30;;;;;;4982015;28;20054;-80
2021/09/13 08:09:57;;;;;;;1.98;1.67;;;23.00;70.00;;;;;;4978793;28;20050;-79
2021/09/13 08:12:23;;;;;;;1.23;1.13;;;23.20;69.10;;;;;;4993197;28;20026;-82
2021/09/13 08:14:49;;;;;;;1.00;1.00;;;23.30;68.20;;;;;;5010078;28;20026;-82
2021/09/13 08:17:17;;;;;;;1.48;1.38;;;23.50;68.70;;;;;;5009217;28;20089;-78
2021/09/13 08:19:44;;;;;;;2.20;2.00;;;23.70;68.30;;;;;;4992731;28;20034;-84
2021/09/13 08:22:11;;;;;;;17.92;2.00;;;23.70;67.80;;;;;;5010288;28;20018;-81
2021/09/13 08:24:38;;;;;;;1.38;1.27;;;23.90;67.70;;;;;;4992322;28;20033;-78
2021/09/13 08:27:04;;;;;;;3.22;2.95;;;24.20;66.80;;;;;;5009672;28;20530;-80
2021/09/13 08:29:30;;;;;;;1.50;1.30;;;24.60;66.20;;;;;;5009706;28;20029;-82
2021/09/13 08:31:56;;;;;;;5.15;3.15;;;24.80;65.70;;;;;;4991758;28;20030;-80
2021/09/13 08:34:23;;;;;;;1.23;1.15;;;24.90;64.80;;;;;;5009473;28;20024;-81
2021/09/13 08:36:49;;;;;;;1.50;1.33;;;25.00;64.00;;;;;;5018766;28;20022;-80
2021/09/13 08:39:15;;;;;;;1.45;1.35;;;25.30;64.10;;;;;;5007606;28;20085;-79
2021/09/13 08:41:42;;;;;;;2.55;2.35;;;25.30;63.70;;;;;;5000129;28;20341;-82
2021/09/13 08:44:10;;;;;;;2.15;1.13;;;25.20;63.40;;;;;;5001040;28;20087;-79
2021/09/13 08:46:46;;;;;;;1.27;1.17;;;25.10;63.00;;;;;;5019775;28;20477;-79
2021/09/13 08:49:25;;;;;;;1.10;1.05;;;25.30;62.70;;;;;;5005359;28;20034;-82
2021/09/13 08:51:51;;;;;;;1.30;1.20;;;25.70;62.60;;;;;;5021026;28;20488;-81
2021/09/13 08:54:17;;;;;;;1.15;1.05;;;26.10;62.40;;;;;;5025867;28;20041;-80
2021/09/13 08:56:47;;;;;;;1.35;1.25;;;26.30;62.20;;;;;;5022177;28;20014;-83
2021/09/13 08:59:16;;;;;;;1.17;1.08;;;26.30;61.50;;;;;;5022850;28;20041;-84
2021/09/13 09:01:43;;;;;;;1.33;1.23;;;26.30;61.70;;;;;;5002298;28;20025;-82
2021/09/13 09:04:10;;;;;;;0.98;0.93;;;26.50;60.60;;;;;;5020474;28;20370;-83
2021/09/13 09:06:41;;;;;;;1.73;1.63;;;26.80;61.20;;;;;;5020370;28;20069;-81
2021/09/13 09:09:13;;;;;;;1.38;1.27;;;26.90;60.40;;;;;;5003644;28;20501;-82
2021/09/13 09:12:00;;;;;;;1.05;0.80;;;27.10;60.20;;;;;;4999944;28;20125;-79
2021/09/13 09:14:44;;;;;;;2.00;1.80;;;27.40;59.00;;;;;;5019947;28;20257;-81
2021/09/13 09:17:28;;;;;;;1.77;0.95;;;27.00;58.40;;;;;;5020515;28;20025;-77
2021/09/13 09:20:11;;;;;;;0.60;0.60;;;27.00;58.70;;;;;;4998191;28;20448;-79
2021/09/13 09:22:40;;;;;;;0.95;0.95;;;27.20;59.80;;;;;;5002796;28;20018;-81
2021/09/13 09:25:10;;;;;;;1.02;0.85;;;27.20;57.00;;;;;;5003768;28;20098;-81
2021/09/13 09:27:53;;;;;;;;;;;27.40;58.20;;;;;;5004963;28;20125;-81
2021/09/13 09:30:19;;;;;;;0.40;0.40;;;27.40;56.30;;;;;;5017769;28;20699;-81
2021/09/13 09:33:01;;;;;;;0.70;0.70;;;27.70;56.90;;;;;;5013234;28;20469;-82
2021/09/13 09:35:27;;;;;;;0.60;0.60;;;28.00;56.60;;;;;;5014475;28;20057;-77
2021/09/13 09:37:52;;;;;;;1.40;1.15;;;27.90;56.10;;;;;;5032336;28;20397;-81
2021/09/13 09:40:28;;;;;;;0.90;0.75;;;27.80;55.70;;;;;;5031892;28;20430;-81
2021/09/13 09:43:04;;;;;;;0.77;0.77;;;28.20;55.60;;;;;;5007337;28;20022;-82
2021/09/13 09:45:33;;;;;;;0.55;0.55;;;28.00;53.90;;;;;;5022300;28;20034;-79
2021/09/13 09:48:09;;;;;;;1.30;0.90;;;28.00;53.40;;;;;;4999726;28;20017;-80
2021/09/13 09:50:36;;;;;;;0.40;0.40;;;28.20;53.00;;;;;;4996245;28;20038;-79
2021/09/13 09:53:39;;;;;;;1.42;1.25;;;28.20;53.50;;;;;;5011696;28;20458;-81
2021/09/13 09:56:12;;;;;;;0.63;0.63;;;28.50;54.40;;;;;;5011853;28;20029;-79
2021/09/13 09:59:01;;;;;;;0.57;0.57;;;28.60;53.00;;;;;;4994555;28;20544;-77
2021/09/13 10:01:41;;;;;;;0.30;0.30;;;28.80;53.10;;;;;;4996513;28;20038;-83
2021/09/13 10:04:28;;;;;;;1.75;1.17;;;28.80;53.00;;;;;;5011212;28;20382;-84
2021/09/13 10:07:01;;;;;;;0.70;0.70;;;28.80;52.30;;;;;;5027326;28;20077;-79
2021/09/13 10:09:29;;;;;;;0.55;0.52;;;29.10;52.20;;;;;;5013432;28;20033;-80
2021/09/13 10:11:58;;;;;;;1.38;0.98;;;29.50;52.80;;;;;;5030365;28;20021;-82
2021/09/13 10:14:26;;;;;;;0.50;0.50;;;29.00;51.90;;;;;;5031672;28;20449;-81
2021/09/13 10:16:52;;;;;;;1.10;0.85;;;29.10;51.40;;;;;;5031009;28;20563;-87
2021/09/13 10:19:23;;;;;;;1.15;1.05;;;29.00;53.00;;;;;;5031548;28;20037;-80
2021/09/13 10:21:51;;;;;;;1.00;0.88;;;29.20;52.50;;;;;;5012895;28;20141;-80
2021/09/13 10:24:24;;;;;;;0.40;0.40;;;29.40;51.50;;;;;;5013412;28;20766;-80
2021/09/13 10:27:07;;;;;;;0.40;0.40;;;29.40;50.80;;;;;;5030691;28;20025;-79
2021/09/13 10:29:33;;;;;;;1.00;0.82;;;29.50;51.20;;;;;;5017401;28;20034;-78
2021/09/13 10:32:01;;;;;;;1.00;0.82;;;29.10;52.20;;;;;;5010744;28;20030;-76
2021/09/13 10:34:36;;;;;;;1.23;0.90;;;29.50;51.50;;;;;;5010305;28;20026;-79
2021/09/13 10:37:16;;;;;;;0.55;0.55;;;29.10;51.80;;;;;;5011453;28;20422;-80
2021/09/13 10:39:56;;;;;;;1.17;1.02;;;29.00;51.20;;;;;;5011665;28;20115;-79
2021/09/13 10:42:26;;;;;;;0.50;0.50;;;29.70;50.80;;;;;;5011445;28;20355;-80
2021/09/13 10:45:09;;;;;;;0.30;0.30;;;29.70;50.10;;;;;;5009960;28;20124;-83
2021/09/13 10:47:36;;;;;;;0.35;0.35;;;29.90;50.00;;;;;;5011189;28;20374;-82
2021/09/13 10:50:19;;;;;;;1.33;0.88;;;30.00;50.10;;;;;;5010231;28;20093;-83
2021/09/13 10:52:46;;;;;;;0.52;0.52;;;29.70;49.80;;;;;;5011222;28;20541;-84
2021/09/13 10:55:20;;;;;;;3.40;1.23;;;29.80;49.90;;;;;;5000463;28;20030;-85
2021/09/13 10:58:04;;;;;;;1.35;0.90;;;29.90;50.00;;;;;;5009793;28;20366;-81
2021/09/13 11:00:53;;;;;;;0.75;0.70;;;30.00;50.30;;;;;;5010906;28;20037;-84
2021/09/13 11:06:11;;;;;;;1.10;0.85;;;30.00;50.70;;;;;;5010063;28;20136;-82
2021/09/13 11:08:50;;;;;;;1.00;0.90;;;29.80;49.70;;;;;;5009998;28;20030;-84
2021/09/13 11:11:25;;;;;;;0.47;0.47;;;29.50;50.50;;;;;;4992446;28;20030;-78
2021/09/13 11:14:21;;;;;;;0.52;0.52;;;30.10;50.10;;;;;;5010105;28;20061;-80
2021/09/13 11:16:54;;;;;;;0.30;0.30;;;30.10;50.40;;;;;;4989414;28;20383;-80
2021/09/13 11:19:21;;;;;;;0.43;0.43;;;30.50;49.60;;;;;;5009743;28;20473;-80
2021/09/13 11:21:54;;;;;;;0.95;0.77;;;30.50;49.20;;;;;;4992463;28;20030;-80
2021/09/13 11:24:25;;;;;;;1.55;0.93;;;30.50;50.00;;;;;;5009774;28;20045;-80
2021/09/13 11:26:52;;;;;;;0.73;0.73;;;30.90;49.90;;;;;;4991128;28;20496;-78
2021/09/13 11:29:25;;;;;;;0.60;0.60;;;31.10;50.30;;;;;;5010135;28;20033;-81
2021/09/13 11:31:58;;;;;;;0.73;0.73;;;30.90;49.00;;;;;;4993081;28;20030;-78
2021/09/13 11:34:26;;;;;;;0.30;0.30;;;30.80;49.00;;;;;;5001335;28;20115;-83
2021/09/13 11:37:23;;;;;;;0.70;0.68;;;30.60;48.20;;;;;;5020533;28;20013;-80
2021/09/13 11:39:54;;;;;;;0.73;0.60;;;30.70;48.80;;;;;;5022496;28;20378;-83
2021/09/13 11:42:25;;;;;;;0.98;0.68;;;30.80;48.90;;;;;;5011518;28;20393;-77
2021/09/13 11:45:12;;;;;;;2.42;1.25;;;31.10;48.80;;;;;;5029316;28;20037;-79
2021/09/13 11:47:37;;;;;;;0.85;0.70;;;31.20;48.40;;;;;;5029207;28;20485;-77
2021/09/13 11:50:06;;;;;;;0.65;0.60;;;31.20;48.60;;;;;;5029335;28;20033;-78
2021/09/13 11:52:36;;;;;;;0.55;0.52;;;31.20;48.50;;;;;;5029033;28;20026;-82
2021/09/13 11:55:09;;;;;;;0.30;0.30;;;31.30;48.70;;;;;;5028846;28;20014;-80
2021/09/13 11:57:42;;;;;;;0.40;0.40;;;31.60;48.60;;;;;;5029344;28;20448;-81
2021/09/13 12:00:08;;;;;;;0.93;0.63;;;31.80;48.30;;;;;;5011619;28;20054;-79
2021/09/13 12:02:34;;;;;;;1.10;0.85;;;31.40;47.70;;;;;;5029230;28;20032;-79
2021/09/13 12:05:10;;;;;;;3.47;1.17;;;30.10;48.00;;;;;;5011386;28;20503;-82
2021/09/13 12:07:36;;;;;;;3.03;0.82;;;29.90;49.60;;;;;;5011709;28;20389;-77
2021/09/13 12:10:02;;;;;;;3.97;0.75;;;30.00;48.90;;;;;;5029228;28;20477;-77
2021/09/13 12:12:28;;;;;;;0.73;0.60;;;30.90;49.80;;;;;;5028832;28;20120;-78
2021/09/13 12:15:06;;;;;;;1.80;1.55;;;31.20;48.30;;;;;;5029696;28;20038;-77
2021/09/13 12:17:42;;;;;;;1.05;0.65;;;30.60;48.70;;;;;;5003877;28;20022;-77
2021/09/13 12:20:30;;;;;;;3.22;2.38;;;31.00;48.60;;;;;;5019844;28;20405;-80
2021/09/13 12:23:24;;;;;;;0.40;0.40;;;31.10;48.60;;;;;;5016756;28;20021;-79
2021/09/13 12:25:53;;;;;;;0.63;0.63;;;31.10;48.20;;;;;;5006465;28;20044;-80
2021/09/13 12:28:27;;;;;;;0.30;0.30;;;31.20;48.30;;;;;;5030900;28;20038;-80
2021/09/13 12:31:12;;;;;;;0.50;0.50;;;31.90;48.60;;;;;;5011913;28;20041;-78
2021/09/13 12:33:48;;;;;;;1.05;0.75;;;32.30;48.00;;;;;;5015473;28;20488;-83
2021/09/13 12:36:20;;;;;;;0.57;0.50;;;32.40;47.10;;;;;;5033014;28;20037;-80
2021/09/13 12:38:48;;;;;;;0.88;0.70;;;32.20;47.10;;;;;;5015246;28;20385;-84
2021/09/13 12:41:15;;;;;;;0.95;0.85;;;33.00;47.60;;;;;;5032895;28;20082;-78
2021/09/13 12:43:47;;;;;;;0.65;0.57;;;33.50;47.00;;;;;;5032277;28;20042;-79
2021/09/13 12:46:16;;;;;;;0.75;0.70;;;33.80;47.70;;;;;;5032142;28;20430;-81
2021/09/13 12:48:45;;;;;;;1.17;0.85;;;34.10;47.30;;;;;;5032749;28;20036;-79
2021/09/13 12:51:17;;;;;;;0.90;0.60;;;34.20;49.40;;;;;;5011447;28;20026;-82
2021/09/13 12:54:05;;;;;;;1.33;1.23;;;33.70;46.90;;;;;;5013677;28;20021;-82
2021/09/13 12:56:44;;;;;;;1.15;1.05;;;32.70;46.90;;;;;;5012266;28;20026;-82
2021/09/13 12:59:23;;;;;;;0.35;0.35;;;32.70;46.70;;;;;;5014582;28;20041;-81
2021/09/13 13:01:50;;;;;;;0.47;0.47;;;32.30;47.20;;;;;;5020059;28;20022;-80
2021/09/13 13:04:18;;;;;;;0.52;0.35;;;32.90;47.80;;;;;;5018162;28;20029;-81
2021/09/13 13:06:47;;;;;;;0.88;0.75;;;32.90;47.70;;;;;;5029578;28;20049;-79
2021/09/13 13:09:17;;;;;;;2.10;0.98;;;33.00;47.70;;;;;;5014697;28;20056;-79